sensor_id;sensor_type;location;lat;lon;timestamp;pressure;altitude;pressure_sealevel;temperature;humidity
49645;BME280;36494;50.730;-1.932;2023-05-14T00:00:55;101861.20;;;11.33;100.00
49645;BME280;36494;50.730;-1.932;2023-05-14T00:03:21;101858.64;;;11.31;100.00
49645;BME280;36494;50.730;-1.932;2023-05-14T00:05:47;101862.05;;;11.29;100.00
49645;BME280;36494;50.730;-1.932;2023-05-14T00:08:12;101866.14;;;11.27;100.00
49645;BME280;36494;50.730;-1.932;2023-05-14T00:10:38;101864.77;;;11.24;100.00
49645;BME280;36494;50.730;-1.932;2023-05-14T00:13:04;101857.49;;;11.25;100.00
49645;BME280;36494;50.730;-1.932;2023-05-14T00:15:29;101855.73;;;11.24;100.00
49645;BME280;36494;50.730;-1.932;2023-05-14T00:17:54;101857.15;;;11.25;100.00
49645;BME280;36494;50.730;-1.932;2023-05-14T00:20:20;101862.33;;;11.26;100.00
49645;BME280;36494;50.730;-1.932;2023-05-14T00:22:45;101864.52;;;11.24;100.00
49645;BME280;36494;50.730;-1.932;2023-05-14T00:25:10;101861.22;;;11.25;100.00
49645;BME280;36494;50.730;-1.932;2023-05-14T00:27:36;101865.53;;;11.26;100.00
49645;BME280;36494;50.730;-1.932;2023-05-14T00:30:03;101866.55;;;11.25;100.00
49645;BME280;36494;50.730;-1.932;2023-05-14T00:32:27;101862.68;;;11.29;100.00
49645;BME280;36494;50.730;-1.932;2023-05-14T00:34:53;101854.47;;;11.29;100.00
49645;BME280;36494;50.730;-1.932;2023-05-14T00:37:18;101852.87;;;11.28;100.00
49645;BME280;36494;50.730;-1.932;2023-05-14T00:39:43;101850.69;;;11.30;100.00
49645;BME280;36494;50.730;-1.932;2023-05-14T00:42:08;101849.78;;;11.29;100.00
49645;BME280;36494;50.730;-1.932;2023-05-14T00:44:34;101845.97;;;11.29;100.00
49645;BME280;36494;50.730;-1.932;2023-05-14T00:47:00;101844.76;;;11.31;100.00
49645;BME280;36494;50.730;-1.932;2023-05-14T00:49:25;101841.13;;;11.33;100.00
49645;BME280;36494;50.730;-1.932;2023-05-14T00:51:50;101832.70;;;11.33;100.00
49645;BME280;36494;50.730;-1.932;2023-05-14T00:54:16;101832.17;;;11.34;100.00
49645;BME280;36494;50.730;-1.932;2023-05-14T00:56:42;101827.65;;;11.35;100.00
49645;BME280;36494;50.730;-1.932;2023-05-14T00:59:07;101819.59;;;11.36;100.00
49645;BME280;36494;50.730;-1.932;2023-05-14T01:01:33;101818.28;;;11.37;100.00
49645;BME280;36494;50.730;-1.932;2023-05-14T01:03:59;101820.69;;;11.34;100.00
49645;BME280;36494;50.730;-1.932;2023-05-14T01:06:29;101822.39;;;11.34;100.00
49645;BME280;36494;50.730;-1.932;2023-05-14T01:08:55;101820.06;;;11.44;100.00
49645;BME280;36494;50.730;-1.932;2023-05-14T01:11:18;101806.48;;;11.46;100.00
49645;BME280;36494;50.730;-1.932;2023-05-14T01:13:45;101800.97;;;11.43;100.00
49645;BME280;36494;50.730;-1.932;2023-05-14T01:16:10;101802.51;;;11.44;100.00
49645;BME280;36494;50.730;-1.932;2023-05-14T01:18:32;101799.50;;;11.42;100.00
49645;BME280;36494;50.730;-1.932;2023-05-14T01:20:57;101794.81;;;11.41;100.00
49645;BME280;36494;50.730;-1.932;2023-05-14T01:23:22;101790.22;;;11.41;100.00
49645;BME280;36494;50.730;-1.932;2023-05-14T01:25:48;101791.51;;;11.42;100.00
49645;BME280;36494;50.730;-1.932;2023-05-14T01:28:17;101788.38;;;11.43;100.00
49645;BME280;36494;50.730;-1.932;2023-05-14T01:30:42;101785.78;;;11.44;100.00
49645;BME280;36494;50.730;-1.932;2023-05-14T01:33:10;101779.70;;;11.42;100.00
49645;BME280;36494;50.730;-1.932;2023-05-14T01:35:30;101775.33;;;11.41;100.00
49645;BME280;36494;50.730;-1.932;2023-05-14T01:37:58;101781.24;;;11.41;100.00
49645;BME280;36494;50.730;-1.932;2023-05-14T01:40:21;101783.63;;;11.42;100.00
49645;BME280;36494;50.730;-1.932;2023-05-14T01:42:47;101783.70;;;11.43;100.00
49645;BME280;36494;50.730;-1.932;2023-05-14T01:45:12;101786.56;;;11.41;100.00
49645;BME280;36494;50.730;-1.932;2023-05-14T01:47:38;101785.02;;;11.41;100.00
49645;BME280;36494;50.730;-1.932;2023-05-14T01:50:04;101777.01;;;11.41;100.00
49645;BME280;36494;50.730;-1.932;2023-05-14T01:52:28;101777.97;;;11.42;100.00
49645;BME280;36494;50.730;-1.932;2023-05-14T01:54:54;101782.40;;;11.43;100.00
49645;BME280;36494;50.730;-1.932;2023-05-14T01:57:19;101780.80;;;11.43;100.00
49645;BME280;36494;50.730;-1.932;2023-05-14T01:59:45;101776.66;;;11.42;100.00
49645;BME280;36494;50.730;-1.932;2023-05-14T02:02:10;101773.52;;;11.40;100.00
49645;BME280;36494;50.730;-1.932;2023-05-14T02:04:36;101769.86;;;11.38;100.00
49645;BME280;36494;50.730;-1.932;2023-05-14T02:07:01;101766.63;;;11.37;100.00
49645;BME280;36494;50.730;-1.932;2023-05-14T02:09:27;101767.40;;;11.35;100.00
49645;BME280;36494;50.730;-1.932;2023-05-14T02:11:52;101768.64;;;11.35;100.00
49645;BME280;36494;50.730;-1.932;2023-05-14T02:14:17;101766.11;;;11.36;100.00
49645;BME280;36494;50.730;-1.932;2023-05-14T02:16:42;101760.65;;;11.35;100.00
49645;BME280;36494;50.730;-1.932;2023-05-14T02:19:07;101760.25;;;11.34;100.00
49645;BME280;36494;50.730;-1.932;2023-05-14T02:21:33;101761.28;;;11.29;100.00
49645;BME280;36494;50.730;-1.932;2023-05-14T02:23:58;101763.20;;;11.25;100.00
49645;BME280;36494;50.730;-1.932;2023-05-14T02:26:24;101760.16;;;11.12;100.00
49645;BME280;36494;50.730;-1.932;2023-05-14T02:28:49;101759.84;;;11.17;100.00
49645;BME280;36494;50.730;-1.932;2023-05-14T02:31:15;101760.32;;;11.20;100.00
49645;BME280;36494;50.730;-1.932;2023-05-14T02:33:40;101754.94;;;11.23;100.00
49645;BME280;36494;50.730;-1.932;2023-05-14T02:36:06;101750.33;;;11.22;100.00
49645;BME280;36494;50.730;-1.932;2023-05-14T02:38:32;101749.87;;;11.23;100.00
49645;BME280;36494;50.730;-1.932;2023-05-14T02:40:57;101745.42;;;11.22;100.00
49645;BME280;36494;50.730;-1.932;2023-05-14T02:43:23;101746.75;;;11.23;100.00
49645;BME280;36494;50.730;-1.932;2023-05-14T02:45:48;101751.88;;;11.19;100.00
49645;BME280;36494;50.730;-1.932;2023-05-14T02:48:14;101752.17;;;11.19;100.00
49645;BME280;36494;50.730;-1.932;2023-05-14T02:50:40;101757.63;;;11.20;100.00
49645;BME280;36494;50.730;-1.932;2023-05-14T02:53:05;101759.20;;;11.21;100.00
49645;BME280;36494;50.730;-1.932;2023-05-14T02:55:30;101756.26;;;11.19;100.00
49645;BME280;36494;50.730;-1.932;2023-05-14T02:57:56;101753.56;;;11.18;100.00
49645;BME280;36494;50.730;-1.932;2023-05-14T03:00:22;101753.23;;;11.18;100.00
49645;BME280;36494;50.730;-1.932;2023-05-14T03:02:48;101757.23;;;11.16;100.00
49645;BME280;36494;50.730;-1.932;2023-05-14T03:05:13;101758.65;;;11.11;100.00
49645;BME280;36494;50.730;-1.932;2023-05-14T03:07:38;101758.54;;;11.05;100.00
49645;BME280;36494;50.730;-1.932;2023-05-14T03:10:05;101760.33;;;11.10;100.00
49645;BME280;36494;50.730;-1.932;2023-05-14T03:12:29;101756.51;;;11.13;100.00
49645;BME280;36494;50.730;-1.932;2023-05-14T03:14:55;101755.79;;;11.13;100.00
49645;BME280;36494;50.730;-1.932;2023-05-14T03:17:20;101758.88;;;11.12;100.00
49645;BME280;36494;50.730;-1.932;2023-05-14T03:19:46;101759.46;;;11.07;100.00
49645;BME280;36494;50.730;-1.932;2023-05-14T03:22:11;101760.97;;;11.06;100.00
49645;BME280;36494;50.730;-1.932;2023-05-14T03:24:38;101760.94;;;11.07;100.00
49645;BME280;36494;50.730;-1.932;2023-05-14T03:27:02;101759.51;;;11.08;100.00
49645;BME280;36494;50.730;-1.932;2023-05-14T03:29:27;101754.80;;;11.10;100.00
49645;BME280;36494;50.730;-1.932;2023-05-14T03:31:52;101752.47;;;11.10;100.00
49645;BME280;36494;50.730;-1.932;2023-05-14T03:34:18;101751.42;;;11.10;100.00
49645;BME280;36494;50.730;-1.932;2023-05-14T03:36:43;101749.91;;;11.10;100.00
49645;BME280;36494;50.730;-1.932;2023-05-14T03:39:09;101748.14;;;11.10;100.00
49645;BME280;36494;50.730;-1.932;2023-05-14T03:41:35;101750.26;;;11.09;100.00
49645;BME280;36494;50.730;-1.932;2023-05-14T03:44:00;101750.01;;;11.09;100.00
49645;BME280;36494;50.730;-1.932;2023-05-14T03:46:25;101747.21;;;11.05;100.00
49645;BME280;36494;50.730;-1.932;2023-05-14T03:48:51;101752.65;;;11.06;100.00
49645;BME280;36494;50.730;-1.932;2023-05-14T03:51:16;101748.58;;;11.05;100.00
49645;BME280;36494;50.730;-1.932;2023-05-14T03:53:42;101748.57;;;10.94;100.00
49645;BME280;36494;50.730;-1.932;2023-05-14T03:56:07;101749.04;;;10.95;100.00
49645;BME280;36494;50.730;-1.932;2023-05-14T03:58:33;101750.07;;;10.91;100.00
49645;BME280;36494;50.730;-1.932;2023-05-14T04:00:58;101748.98;;;10.94;100.00
49645;BME280;36494;50.730;-1.932;2023-05-14T04:03:24;101747.87;;;10.90;100.00
49645;BME280;36494;50.730;-1.932;2023-05-14T04:05:50;101748.21;;;10.84;100.00
49645;BME280;36494;50.730;-1.932;2023-05-14T04:08:14;101745.48;;;10.79;100.00
49645;BME280;36494;50.730;-1.932;2023-05-14T04:10:41;101743.20;;;10.72;100.00
49645;BME280;36494;50.730;-1.932;2023-05-14T04:13:05;101735.74;;;10.79;100.00
49645;BME280;36494;50.730;-1.932;2023-05-14T04:15:30;101732.04;;;10.78;100.00
49645;BME280;36494;50.730;-1.932;2023-05-14T04:17:56;101727.79;;;10.82;100.00
49645;BME280;36494;50.730;-1.932;2023-05-14T04:20:21;101726.82;;;10.79;100.00
49645;BME280;36494;50.730;-1.932;2023-05-14T04:22:47;101726.41;;;10.81;100.00
49645;BME280;36494;50.730;-1.932;2023-05-14T04:25:12;101724.48;;;10.85;100.00
49645;BME280;36494;50.730;-1.932;2023-05-14T04:27:38;101721.63;;;10.81;100.00
49645;BME280;36494;50.730;-1.932;2023-05-14T04:30:04;101719.39;;;10.82;100.00
49645;BME280;36494;50.730;-1.932;2023-05-14T04:32:29;101719.71;;;10.81;100.00
49645;BME280;36494;50.730;-1.932;2023-05-14T04:34:54;101718.63;;;10.79;100.00
49645;BME280;36494;50.730;-1.932;2023-05-14T04:37:19;101715.27;;;10.75;100.00
49645;BME280;36494;50.730;-1.932;2023-05-14T04:39:45;101717.13;;;10.76;100.00
49645;BME280;36494;50.730;-1.932;2023-05-14T04:42:10;101718.84;;;10.76;100.00
49645;BME280;36494;50.730;-1.932;2023-05-14T04:44:35;101715.64;;;10.77;100.00
49645;BME280;36494;50.730;-1.932;2023-05-14T04:47:00;101711.57;;;10.77;100.00
49645;BME280;36494;50.730;-1.932;2023-05-14T04:49:26;101712.23;;;10.77;100.00
49645;BME280;36494;50.730;-1.932;2023-05-14T04:51:51;101716.29;;;10.75;100.00
49645;BME280;36494;50.730;-1.932;2023-05-14T04:54:17;101721.55;;;10.76;100.00
49645;BME280;36494;50.730;-1.932;2023-05-14T04:56:42;101717.15;;;10.77;100.00
49645;BME280;36494;50.730;-1.932;2023-05-14T04:59:07;101719.05;;;10.75;100.00
49645;BME280;36494;50.730;-1.932;2023-05-14T05:01:32;101720.97;;;10.67;100.00
49645;BME280;36494;50.730;-1.932;2023-05-14T05:03:58;101719.94;;;10.55;100.00
49645;BME280;36494;50.730;-1.932;2023-05-14T05:06:23;101715.47;;;10.65;100.00
49645;BME280;36494;50.730;-1.932;2023-05-14T05:08:49;101713.68;;;10.69;100.00
49645;BME280;36494;50.730;-1.932;2023-05-14T05:11:14;101710.72;;;10.70;100.00
49645;BME280;36494;50.730;-1.932;2023-05-14T05:13:40;101704.62;;;10.72;100.00
49645;BME280;36494;50.730;-1.932;2023-05-14T05:16:05;101706.01;;;10.72;100.00
49645;BME280;36494;50.730;-1.932;2023-05-14T05:18:30;101706.10;;;10.71;100.00
49645;BME280;36494;50.730;-1.932;2023-05-14T05:20:56;101711.17;;;10.73;100.00
49645;BME280;36494;50.730;-1.932;2023-05-14T05:23:21;101707.57;;;10.74;100.00
49645;BME280;36494;50.730;-1.932;2023-05-14T05:25:46;101704.45;;;10.74;100.00
49645;BME280;36494;50.730;-1.932;2023-05-14T05:28:12;101706.63;;;10.74;100.00
49645;BME280;36494;50.730;-1.932;2023-05-14T05:30:38;101702.75;;;10.73;100.00
49645;BME280;36494;50.730;-1.932;2023-05-14T05:33:03;101704.24;;;10.75;100.00
49645;BME280;36494;50.730;-1.932;2023-05-14T05:35:29;101703.51;;;10.69;100.00
49645;BME280;36494;50.730;-1.932;2023-05-14T05:37:56;101702.40;;;10.73;100.00
49645;BME280;36494;50.730;-1.932;2023-05-14T05:40:19;101704.69;;;10.75;100.00
49645;BME280;36494;50.730;-1.932;2023-05-14T05:42:45;101704.95;;;10.77;100.00
49645;BME280;36494;50.730;-1.932;2023-05-14T05:45:10;101702.20;;;10.79;100.00
49645;BME280;36494;50.730;-1.932;2023-05-14T05:47:35;101704.61;;;10.81;100.00
49645;BME280;36494;50.730;-1.932;2023-05-14T05:50:01;101701.06;;;10.81;100.00
49645;BME280;36494;50.730;-1.932;2023-05-14T05:52:27;101699.45;;;10.82;100.00
49645;BME280;36494;50.730;-1.932;2023-05-14T05:54:52;101696.68;;;10.81;100.00
49645;BME280;36494;50.730;-1.932;2023-05-14T05:57:17;101691.88;;;10.83;100.00
49645;BME280;36494;50.730;-1.932;2023-05-14T05:59:43;101691.55;;;10.82;100.00
49645;BME280;36494;50.730;-1.932;2023-05-14T06:02:09;101696.87;;;10.83;100.00
49645;BME280;36494;50.730;-1.932;2023-05-14T06:04:34;101702.79;;;10.84;100.00
49645;BME280;36494;50.730;-1.932;2023-05-14T06:07:00;101703.72;;;10.88;100.00
49645;BME280;36494;50.730;-1.932;2023-05-14T06:09:25;101705.41;;;10.89;100.00
49645;BME280;36494;50.730;-1.932;2023-05-14T06:11:51;101703.61;;;10.89;100.00
49645;BME280;36494;50.730;-1.932;2023-05-14T06:14:16;101706.14;;;10.88;100.00
49645;BME280;36494;50.730;-1.932;2023-05-14T06:16:41;101705.36;;;10.86;100.00
49645;BME280;36494;50.730;-1.932;2023-05-14T06:19:07;101708.87;;;10.90;100.00
49645;BME280;36494;50.730;-1.932;2023-05-14T06:21:32;101706.51;;;10.89;100.00
49645;BME280;36494;50.730;-1.932;2023-05-14T06:23:57;101702.21;;;10.91;100.00
49645;BME280;36494;50.730;-1.932;2023-05-14T06:26:23;101701.07;;;10.87;100.00
49645;BME280;36494;50.730;-1.932;2023-05-14T06:28:49;101699.63;;;10.75;100.00
49645;BME280;36494;50.730;-1.932;2023-05-14T06:31:14;101698.89;;;10.86;100.00
49645;BME280;36494;50.730;-1.932;2023-05-14T06:33:40;101699.44;;;10.92;100.00
49645;BME280;36494;50.730;-1.932;2023-05-14T06:36:07;101696.90;;;10.94;100.00
49645;BME280;36494;50.730;-1.932;2023-05-14T06:38:31;101696.35;;;10.83;100.00
49645;BME280;36494;50.730;-1.932;2023-05-14T06:40:57;101695.61;;;10.68;100.00
49645;BME280;36494;50.730;-1.932;2023-05-14T06:43:22;101700.50;;;10.72;100.00
49645;BME280;36494;50.730;-1.932;2023-05-14T06:45:48;101699.13;;;10.80;100.00
49645;BME280;36494;50.730;-1.932;2023-05-14T06:48:13;101696.43;;;10.80;100.00
49645;BME280;36494;50.730;-1.932;2023-05-14T06:50:39;101696.45;;;10.87;100.00
49645;BME280;36494;50.730;-1.932;2023-05-14T06:53:04;101697.43;;;10.88;100.00
49645;BME280;36494;50.730;-1.932;2023-05-14T06:55:29;101699.98;;;10.97;100.00
49645;BME280;36494;50.730;-1.932;2023-05-14T06:57:54;101700.89;;;11.04;100.00
49645;BME280;36494;50.730;-1.932;2023-05-14T07:00:21;101699.78;;;11.05;100.00
49645;BME280;36494;50.730;-1.932;2023-05-14T07:02:45;101698.40;;;11.12;100.00
49645;BME280;36494;50.730;-1.932;2023-05-14T07:05:11;101692.24;;;11.20;100.00
49645;BME280;36494;50.730;-1.932;2023-05-14T07:07:36;101686.15;;;11.23;100.00
49645;BME280;36494;50.730;-1.932;2023-05-14T07:10:02;101683.91;;;11.31;100.00
49645;BME280;36494;50.730;-1.932;2023-05-14T07:12:27;101684.12;;;11.36;100.00
49645;BME280;36494;50.730;-1.932;2023-05-14T07:14:52;101689.40;;;11.39;100.00
49645;BME280;36494;50.730;-1.932;2023-05-14T07:17:18;101689.75;;;11.45;100.00
49645;BME280;36494;50.730;-1.932;2023-05-14T07:19:43;101687.14;;;11.46;100.00
49645;BME280;36494;50.730;-1.932;2023-05-14T07:22:08;101685.10;;;11.53;100.00
49645;BME280;36494;50.730;-1.932;2023-05-14T07:24:34;101684.59;;;11.56;100.00
49645;BME280;36494;50.730;-1.932;2023-05-14T07:26:59;101681.07;;;11.66;100.00
49645;BME280;36494;50.730;-1.932;2023-05-14T07:29:24;101684.15;;;11.73;100.00
49645;BME280;36494;50.730;-1.932;2023-05-14T07:31:50;101679.74;;;11.77;100.00
49645;BME280;36494;50.730;-1.932;2023-05-14T07:34:15;101681.03;;;11.79;100.00
49645;BME280;36494;50.730;-1.932;2023-05-14T07:36:41;101683.88;;;11.83;100.00
49645;BME280;36494;50.730;-1.932;2023-05-14T07:39:06;101682.26;;;11.82;100.00
49645;BME280;36494;50.730;-1.932;2023-05-14T07:41:32;101682.76;;;11.80;100.00
49645;BME280;36494;50.730;-1.932;2023-05-14T07:43:57;101686.63;;;11.80;100.00
49645;BME280;36494;50.730;-1.932;2023-05-14T07:46:23;101683.56;;;11.77;100.00
49645;BME280;36494;50.730;-1.932;2023-05-14T07:48:48;101682.68;;;11.81;100.00
49645;BME280;36494;50.730;-1.932;2023-05-14T07:51:14;101682.68;;;11.77;100.00
49645;BME280;36494;50.730;-1.932;2023-05-14T07:53:39;101687.70;;;11.76;100.00
49645;BME280;36494;50.730;-1.932;2023-05-14T07:56:05;101687.57;;;11.72;100.00
49645;BME280;36494;50.730;-1.932;2023-05-14T07:58:30;101686.03;;;11.75;100.00
49645;BME280;36494;50.730;-1.932;2023-05-14T08:00:56;101689.69;;;11.80;100.00
49645;BME280;36494;50.730;-1.932;2023-05-14T08:03:21;101686.12;;;11.75;100.00
49645;BME280;36494;50.730;-1.932;2023-05-14T08:05:47;101686.01;;;11.77;100.00
49645;BME280;36494;50.730;-1.932;2023-05-14T08:08:12;101686.30;;;11.80;100.00
49645;BME280;36494;50.730;-1.932;2023-05-14T08:10:38;101684.31;;;11.84;100.00
49645;BME280;36494;50.730;-1.932;2023-05-14T08:13:03;101681.67;;;11.92;100.00
49645;BME280;36494;50.730;-1.932;2023-05-14T08:15:29;101678.29;;;11.98;100.00
49645;BME280;36494;50.730;-1.932;2023-05-14T08:17:54;101675.96;;;11.95;100.00
49645;BME280;36494;50.730;-1.932;2023-05-14T08:20:20;101672.68;;;11.96;100.00
49645;BME280;36494;50.730;-1.932;2023-05-14T08:22:45;101673.59;;;12.03;100.00
49645;BME280;36494;50.730;-1.932;2023-05-14T08:25:11;101671.17;;;12.12;100.00
49645;BME280;36494;50.730;-1.932;2023-05-14T08:27:36;101672.46;;;12.14;100.00
49645;BME280;36494;50.730;-1.932;2023-05-14T08:30:01;101674.35;;;12.15;100.00
49645;BME280;36494;50.730;-1.932;2023-05-14T08:32:26;101672.61;;;12.18;100.00
49645;BME280;36494;50.730;-1.932;2023-05-14T08:34:52;101672.13;;;12.26;100.00
49645;BME280;36494;50.730;-1.932;2023-05-14T08:37:17;101665.44;;;12.31;100.00
49645;BME280;36494;50.730;-1.932;2023-05-14T08:39:43;101663.31;;;12.36;100.00
49645;BME280;36494;50.730;-1.932;2023-05-14T08:42:11;101662.13;;;12.40;100.00
49645;BME280;36494;50.730;-1.932;2023-05-14T08:44:38;101661.80;;;12.51;100.00
49645;BME280;36494;50.730;-1.932;2023-05-14T08:46:59;101660.40;;;12.52;100.00
49645;BME280;36494;50.730;-1.932;2023-05-14T08:49:31;101657.07;;;12.62;100.00
49645;BME280;36494;50.730;-1.932;2023-05-14T08:51:49;101656.22;;;12.69;100.00
49645;BME280;36494;50.730;-1.932;2023-05-14T08:54:16;101653.10;;;12.78;100.00
49645;BME280;36494;50.730;-1.932;2023-05-14T08:56:41;101648.63;;;12.83;100.00
49645;BME280;36494;50.730;-1.932;2023-05-14T08:59:06;101645.06;;;12.91;100.00
49645;BME280;36494;50.730;-1.932;2023-05-14T09:01:31;101643.15;;;12.92;100.00
49645;BME280;36494;50.730;-1.932;2023-05-14T09:03:57;101639.54;;;13.01;100.00
49645;BME280;36494;50.730;-1.932;2023-05-14T09:06:22;101632.66;;;13.08;100.00
49645;BME280;36494;50.730;-1.932;2023-05-14T09:08:47;101630.04;;;13.13;100.00
49645;BME280;36494;50.730;-1.932;2023-05-14T09:11:12;101627.30;;;13.16;100.00
49645;BME280;36494;50.730;-1.932;2023-05-14T09:13:38;101628.68;;;13.24;100.00
49645;BME280;36494;50.730;-1.932;2023-05-14T09:16:04;101627.83;;;13.36;100.00
49645;BME280;36494;50.730;-1.932;2023-05-14T09:18:29;101623.38;;;13.39;100.00
49645;BME280;36494;50.730;-1.932;2023-05-14T09:20:54;101618.37;;;13.46;100.00
49645;BME280;36494;50.730;-1.932;2023-05-14T09:23:20;101615.99;;;13.56;100.00
49645;BME280;36494;50.730;-1.932;2023-05-14T09:25:46;101616.72;;;13.64;100.00
49645;BME280;36494;50.730;-1.932;2023-05-14T09:28:10;101617.20;;;13.73;100.00
49645;BME280;36494;50.730;-1.932;2023-05-14T09:30:36;101621.85;;;13.85;100.00
49645;BME280;36494;50.730;-1.932;2023-05-14T09:33:01;101622.56;;;13.92;100.00
49645;BME280;36494;50.730;-1.932;2023-05-14T09:35:27;101620.33;;;14.04;100.00
49645;BME280;36494;50.730;-1.932;2023-05-14T09:37:52;101618.67;;;14.15;100.00
49645;BME280;36494;50.730;-1.932;2023-05-14T09:40:18;101618.00;;;14.31;100.00
49645;BME280;36494;50.730;-1.932;2023-05-14T09:42:43;101619.40;;;14.53;100.00
49645;BME280;36494;50.730;-1.932;2023-05-14T09:45:09;101621.73;;;14.77;100.00
49645;BME280;36494;50.730;-1.932;2023-05-14T09:47:34;101617.08;;;15.04;100.00
49645;BME280;36494;50.730;-1.932;2023-05-14T09:49:59;101614.64;;;15.45;100.00
49645;BME280;36494;50.730;-1.932;2023-05-14T09:52:25;101621.00;;;15.46;100.00
49645;BME280;36494;50.730;-1.932;2023-05-14T09:54:51;101623.68;;;15.67;100.00
49645;BME280;36494;50.730;-1.932;2023-05-14T09:57:17;101622.63;;;15.73;100.00
49645;BME280;36494;50.730;-1.932;2023-05-14T09:59:42;101617.71;;;15.97;100.00
49645;BME280;36494;50.730;-1.932;2023-05-14T10:02:15;101618.47;;;16.20;100.00
49645;BME280;36494;50.730;-1.932;2023-05-14T10:04:34;101614.60;;;16.26;100.00
49645;BME280;36494;50.730;-1.932;2023-05-14T10:06:59;101612.03;;;16.26;100.00
49645;BME280;36494;50.730;-1.932;2023-05-14T10:09:26;101610.59;;;16.51;100.00
49645;BME280;36494;50.730;-1.932;2023-05-14T10:11:52;101610.91;;;16.65;100.00
49645;BME280;36494;50.730;-1.932;2023-05-14T10:14:23;101610.73;;;16.79;100.00
49645;BME280;36494;50.730;-1.932;2023-05-14T10:16:44;101610.48;;;16.88;100.00
49645;BME280;36494;50.730;-1.932;2023-05-14T10:19:08;101605.69;;;17.07;100.00
49645;BME280;36494;50.730;-1.932;2023-05-14T10:21:34;101603.45;;;17.40;100.00
49645;BME280;36494;50.730;-1.932;2023-05-14T10:23:58;101605.25;;;17.41;100.00
49645;BME280;36494;50.730;-1.932;2023-05-14T10:26:24;101602.40;;;17.77;100.00
49645;BME280;36494;50.730;-1.932;2023-05-14T10:28:49;101600.74;;;17.97;100.00
49645;BME280;36494;50.730;-1.932;2023-05-14T10:31:14;101599.80;;;18.18;100.00
49645;BME280;36494;50.730;-1.932;2023-05-14T10:33:46;101596.62;;;18.30;100.00
49645;BME280;36494;50.730;-1.932;2023-05-14T10:36:06;101597.03;;;18.55;100.00
49645;BME280;36494;50.730;-1.932;2023-05-14T10:38:33;101596.09;;;18.74;100.00
49645;BME280;36494;50.730;-1.932;2023-05-14T10:40:58;101592.00;;;19.09;100.00
49645;BME280;36494;50.730;-1.932;2023-05-14T10:43:25;101586.89;;;19.34;100.00
49645;BME280;36494;50.730;-1.932;2023-05-14T10:45:47;101582.50;;;19.50;100.00
49645;BME280;36494;50.730;-1.932;2023-05-14T10:48:13;101584.83;;;19.69;100.00
49645;BME280;36494;50.730;-1.932;2023-05-14T10:50:38;101589.80;;;19.68;100.00
49645;BME280;36494;50.730;-1.932;2023-05-14T10:53:03;101588.09;;;19.76;100.00
49645;BME280;36494;50.730;-1.932;2023-05-14T10:55:30;101584.25;;;19.78;100.00
49645;BME280;36494;50.730;-1.932;2023-05-14T10:57:57;101579.93;;;20.09;100.00
49645;BME280;36494;50.730;-1.932;2023-05-14T11:00:24;101579.60;;;20.40;100.00
49645;BME280;36494;50.730;-1.932;2023-05-14T11:02:45;101575.54;;;20.57;100.00
49645;BME280;36494;50.730;-1.932;2023-05-14T11:05:12;101574.50;;;20.79;100.00
49645;BME280;36494;50.730;-1.932;2023-05-14T11:07:38;101566.23;;;21.03;100.00
49645;BME280;36494;50.730;-1.932;2023-05-14T11:10:03;101565.19;;;21.07;100.00
49645;BME280;36494;50.730;-1.932;2023-05-14T11:12:27;101568.61;;;21.01;100.00
49645;BME280;36494;50.730;-1.932;2023-05-14T11:14:53;101571.78;;;21.19;100.00
49645;BME280;36494;50.730;-1.932;2023-05-14T11:17:18;101576.64;;;19.77;100.00
49645;BME280;36494;50.730;-1.932;2023-05-14T11:19:44;101570.69;;;20.04;100.00
49645;BME280;36494;50.730;-1.932;2023-05-14T11:22:10;101567.88;;;19.62;100.00
49645;BME280;36494;50.730;-1.932;2023-05-14T11:24:36;101573.71;;;19.86;100.00
49645;BME280;36494;50.730;-1.932;2023-05-14T11:27:01;101571.55;;;19.68;100.00
49645;BME280;36494;50.730;-1.932;2023-05-14T11:29:26;101570.71;;;19.61;100.00
49645;BME280;36494;50.730;-1.932;2023-05-14T11:31:53;101569.39;;;19.91;100.00
49645;BME280;36494;50.730;-1.932;2023-05-14T11:34:18;101569.11;;;20.09;100.00
49645;BME280;36494;50.730;-1.932;2023-05-14T11:36:44;101569.47;;;20.24;100.00
49645;BME280;36494;50.730;-1.932;2023-05-14T11:39:16;101571.57;;;20.67;100.00
49645;BME280;36494;50.730;-1.932;2023-05-14T11:41:35;101570.34;;;20.04;100.00
49645;BME280;36494;50.730;-1.932;2023-05-14T11:44:02;101567.54;;;19.57;100.00
49645;BME280;36494;50.730;-1.932;2023-05-14T11:46:26;101572.03;;;19.94;100.00
49645;BME280;36494;50.730;-1.932;2023-05-14T11:48:51;101569.57;;;19.37;100.00
49645;BME280;36494;50.730;-1.932;2023-05-14T11:51:17;101565.41;;;18.91;100.00
49645;BME280;36494;50.730;-1.932;2023-05-14T11:53:44;101561.26;;;18.53;100.00
49645;BME280;36494;50.730;-1.932;2023-05-14T11:56:08;101558.43;;;18.96;100.00
49645;BME280;36494;50.730;-1.932;2023-05-14T11:58:34;101554.99;;;18.81;100.00
49645;BME280;36494;50.730;-1.932;2023-05-14T12:00:59;101553.10;;;18.70;100.00
49645;BME280;36494;50.730;-1.932;2023-05-14T12:03:25;101543.96;;;19.28;100.00
49645;BME280;36494;50.730;-1.932;2023-05-14T12:05:55;101544.07;;;19.14;100.00
49645;BME280;36494;50.730;-1.932;2023-05-14T12:08:19;101542.49;;;18.61;100.00
49645;BME280;36494;50.730;-1.932;2023-05-14T12:10:41;101537.37;;;18.02;100.00
49645;BME280;36494;50.730;-1.932;2023-05-14T12:13:06;101536.17;;;18.44;100.00
49645;BME280;36494;50.730;-1.932;2023-05-14T12:15:31;101530.59;;;18.71;100.00
49645;BME280;36494;50.730;-1.932;2023-05-14T12:17:57;101528.39;;;18.50;100.00
49645;BME280;36494;50.730;-1.932;2023-05-14T12:20:22;101522.20;;;18.68;100.00